« Back
NWS Peachtree City, Ga » Text Product » AHN Terminal Aerodrome Forecast


Printer-friendly Version
Current Version              Previous Versions:   1  2  3  4  5  6  7  8  9  

Terminal Aerodrome Forecast

143
FTAK31 PAJN 231700
TAFAHN
TAF
PAHN 231720Z 2318/2418 12007KT P6SM -SHRA OVC015
     FM240600 09005KT P6SM VCSH BKN015 OVC040
     FM241500 VRB04KT P6SM VCSH SCT015 OVC040
      AMD LTD TO CLD VIS AND WIND=

USA.gov is the U.S. government's official web portal to all federal, state and local government web resources and services.